Auburn, West Virginia
Current Conditions -  °F | °C
As of 2:15 AM on Sunday 23 Nov 2014 (Local Time) from KW22 Reporting Station
Few Clouds Few Clouds  
Wind Chill: 46°   Ceiling: Unl
Heat Index: 48°   Visibility: 10mi
Dew Point: 19°   Wind: 6mph
Humidity: 32%   Direction: 180°S
Pressure: 30.14"   Gusts: NA
Location:  39.1°N, 80.86°W
Report Text: KW22 230715Z AUTO 18005KT 10SM FEW090 09/M07 A3014 RMK AO2
Loading
Personal Weather Stations






























Interactive Weather Map New forecast layout! Learn more

10-Day Weather Forecast

Advertisements
Track Severe Weather on mobile